This is the latest recevied weather packets stored in our database for station/object WX8ASH-13. If no packets are shown the sender has not sent any weather packets the latest 1 day(s).
| Time | Temp. | Humidity | Pressure | Rain* | Wind** | Luminosity | Snow |
|---|---|---|---|---|---|---|---|
| 1778008847 | 16.67° C | 85% | 1008.8 hPa | 0 mm | 0.89 m/s, 304° | - | - |
| 1778008544 | 16.67° C | 85% | 1008.7 hPa | 0 mm | 0 m/s | - | - |
| 1778008246 | 16.67° C | 84% | 1008.8 hPa | 0 mm | 2.24 m/s, 307° | - | - |
| 1778007944 | 16.67° C | 85% | 1008.8 hPa | 0 mm | 1.34 m/s, 300° | - | - |
| 1778007644 | 16.67° C | 84% | 1008.8 hPa | 0 mm | 2.68 m/s, 316° | - | - |
| 1778007346 | 17.22° C | 83% | 1008.9 hPa | 0 mm | 0.45 m/s, 326° | - | - |
| 1778007043 | 17.22° C | 82% | 1008.8 hPa | 0 mm | 1.34 m/s, 335° | - | - |
| 1778006747 | 17.78° C | 80% | 1008.7 hPa | 0 mm | 0 m/s | - | - |
| 1778006443 | 18.33° C | 76% | 1008.8 hPa | 0 mm | 0 m/s | - | - |
| 1778006146 | 18.33° C | 73% | 1008.6 hPa | 0 mm | 0.45 m/s, 277° | - | - |
| 1778005843 | 18.89° C | 72% | 1008.7 hPa | 0 mm | 0 m/s | - | - |
| 1778005545 | 18.89° C | 73% | 1008.8 hPa | 0 mm | 0 m/s | - | - |
| 1778005243 | 18.33° C | 73% | 1008.8 hPa | 0 mm | 0 m/s | - | - |
| 1778004943 | 18.33° C | 75% | 1008.8 hPa | 0 mm | 0 m/s | - | - |
| 1778004644 | 17.78° C | 75% | 1008.9 hPa | 0 mm | 0 m/s | - | - |
| 1778004342 | 17.78° C | 75% | 1009 hPa | 0 mm | 0 m/s | - | - |
| 1778004048 | 17.78° C | 75% | 1009 hPa | 0 mm | 0.45 m/s, 314° | - | - |
| 1778003742 | 17.78° C | 75% | 1009 hPa | 0 mm | 0.45 m/s, 283° | - | - |
| 1778003453 | 17.78° C | 75% | 1008.9 hPa | 0 mm | 0.45 m/s, 297° | - | - |
| 1778003141 | 17.78° C | 75% | 1008.9 hPa | 0 mm | 0 m/s | - | - |
| 1778002845 | 17.78° C | 76% | 1008.8 hPa | 0 mm | 0 m/s | - | - |
| 1778002541 | 17.78° C | 76% | 1008.9 hPa | 0 mm | 0 m/s | - | - |
| 1778002244 | 17.78° C | 76% | 1009 hPa | 0 mm | 0 m/s | - | - |
| 1778001941 | 17.78° C | 75% | 1009 hPa | 0 mm | 0 m/s | - | - |
| 1778001645 | 17.78° C | 75% | 1009 hPa | 0 mm | 1.34 m/s, 294° | - | - |
* Rain latest hour (hover to see other rain measurements)
** Current wind speed in m/s (hover to see current wind gust speed)